Time;durP1;ratioP1;P1;durP2;ratioP2;P2;SDS_P1;SDS_P2;PMS_P1;PMS_P2;Temp;Humidity;BMP_temperature;BMP_pressure;BME280_temperature;BME280_humidity;BME280_pressure;Samples;Min_cycle;Max_cycle;Signal;HPM_P1;HPM_P2
2023/05/18 00:00:22;;;;;;;5.07;1.80;;;18.50;76.60;;;;;;5090193;28;20079;-63
2023/05/18 00:02:48;;;;;;;3.72;1.50;;;18.80;76.80;;;;;;5080522;28;20051;-62
2023/05/18 00:05:16;;;;;;;5.00;1.83;;;18.70;76.80;;;;;;5102487;28;22291;-61
2023/05/18 00:07:42;;;;;;;6.40;1.73;;;18.70;76.70;;;;;;5089526;28;20059;-61
2023/05/18 00:10:08;;;;;;;4.75;1.48;;;18.70;76.70;;;;;;5093091;28;20036;-61
2023/05/18 00:12:34;;;;;;;7.45;1.60;;;18.80;76.80;;;;;;5075443;28;20392;-63
2023/05/18 00:15:00;;;;;;;3.38;1.30;;;18.80;76.90;;;;;;5113452;28;20048;-63
2023/05/18 00:17:26;;;;;;;5.28;1.67;;;18.60;76.80;;;;;;5091281;28;20040;-64
2023/05/18 00:19:51;;;;;;;4.97;1.90;;;19.00;76.90;;;;;;5070412;28;20044;-65
2023/05/18 00:22:17;;;;;;;6.43;1.75;;;;;;;;;;5091855;28;20052;-63
2023/05/18 00:24:46;;;;;;;5.75;1.75;;;18.90;76.90;;;;;;5107003;28;20074;-61
2023/05/18 00:27:12;;;;;;;3.88;1.35;;;;;;;;;;5091806;28;20050;-61
2023/05/18 00:29:38;;;;;;;4.57;1.60;;;18.60;76.70;;;;;;5091333;28;20051;-61
2023/05/18 00:32:04;;;;;;;4.78;1.80;;;18.60;76.70;;;;;;5092028;28;20040;-61
2023/05/18 00:34:30;;;;;;;6.85;1.90;;;18.50;76.70;;;;;;5093503;28;20099;-62
2023/05/18 00:36:57;;;;;;;4.07;1.63;;;18.70;76.80;;;;;;5092615;28;20117;-61
2023/05/18 00:39:23;;;;;;;5.45;1.50;;;;;;;;;;5091396;28;20560;-62
2023/05/18 00:41:49;;;;;;;6.07;1.67;;;18.60;74.40;;;;;;5112823;28;20055;-61
2023/05/18 00:44:15;;;;;;;5.07;1.92;;;18.90;75.40;;;;;;5089606;28;20162;-61
2023/05/18 00:46:43;;;;;;;6.35;1.80;;;18.90;76.80;;;;;;5094566;28;20548;-61
2023/05/18 00:49:09;;;;;;;5.20;1.98;;;18.70;73.00;;;;;;5097592;28;20039;-62
2023/05/18 00:51:34;;;;;;;4.45;1.55;;;18.60;76.70;;;;;;5093169;28;20435;-61
2023/05/18 00:54:02;;;;;;;5.88;1.52;;;;;;;;;;5072546;28;20094;-61
2023/05/18 00:56:28;;;;;;;3.92;1.50;;;18.70;76.80;;;;;;5088025;28;20051;-60
2023/05/18 00:58:57;;;;;;;7.75;2.15;;;;;;;;;;5090534;28;20044;-63
2023/05/18 01:01:26;;;;;;;6.78;2.00;;;18.50;73.40;;;;;;5089215;28;20437;-61
2023/05/18 01:03:55;;;;;;;3.38;1.48;;;18.60;76.70;;;;;;5060007;28;20416;-61
2023/05/18 01:06:21;;;;;;;5.63;1.70;;;18.50;76.60;;;;;;5083981;28;20447;-63
2023/05/18 01:08:48;;;;;;;6.05;2.00;;;18.90;76.80;;;;;;5103960;28;20036;-61
2023/05/18 01:11:28;;;;;;;4.40;1.63;;;18.60;76.70;;;;;;5102387;28;20385;-61
2023/05/18 01:14:14;;;;;;;4.65;1.85;;;18.60;76.70;;;;;;5073791;28;20044;-62
2023/05/18 01:16:53;;;;;;;5.45;1.63;;;18.70;75.30;;;;;;5090529;28;20097;-62
2023/05/18 01:19:50;;;;;;;3.90;1.45;;;18.70;76.80;;;;;;5073341;28;20040;-60
2023/05/18 01:22:22;;;;;;;4.45;1.58;;;18.80;76.90;;;;;;5071936;28;20075;-61
2023/05/18 01:24:48;;;;;;;5.15;1.58;;;;;;;;;;5092466;28;20044;-60
2023/05/18 01:27:15;;;;;;;5.88;1.70;;;18.50;76.70;;;;;;5088207;28;20119;-61
2023/05/18 01:29:42;;;;;;;6.32;1.75;;;18.60;76.80;;;;;;5072247;28;20059;-61
2023/05/18 01:32:08;;;;;;;4.50;1.63;;;18.60;76.80;;;;;;5074416;28;20370;-61
2023/05/18 01:34:33;;;;;;;3.22;1.30;;;18.60;76.70;;;;;;5092302;28;20387;-61
2023/05/18 01:37:00;;;;;;;5.95;1.63;;;18.50;76.70;;;;;;5092089;28;20036;-62
2023/05/18 01:39:25;;;;;;;5.80;1.70;;;18.50;74.90;;;;;;5093718;28;20056;-62
2023/05/18 01:42:02;;;;;;;4.15;1.60;;;18.40;73.60;;;;;;5075620;28;20055;-61
2023/05/18 01:45:06;;;;;;;6.15;1.98;;;18.40;72.10;;;;;;5059571;28;20316;-61
2023/05/18 01:47:32;;;;;;;4.07;1.33;;;18.10;74.00;;;;;;5087596;28;20060;-62
2023/05/18 01:50:00;;;;;;;5.68;1.58;;;18.50;76.80;;;;;;5061145;28;20209;-61
2023/05/18 01:52:38;;;;;;;6.32;2.38;;;;;;;;;;5094637;28;20044;-61
2023/05/18 01:55:05;;;;;;;5.07;1.90;;;18.50;76.80;;;;;;5077903;28;20131;-61
2023/05/18 01:57:31;;;;;;;5.97;1.77;;;18.60;76.80;;;;;;5059091;28;20044;-60
2023/05/18 02:00:00;;;;;;;5.32;1.88;;;18.50;76.80;;;;;;5075615;28;20040;-61
2023/05/18 02:02:26;;;;;;;7.13;1.70;;;18.60;73.20;;;;;;5093896;28;20070;-62
2023/05/18 02:04:52;;;;;;;6.80;2.00;;;18.40;76.60;;;;;;5076241;28;20040;-62
2023/05/18 02:07:19;;;;;;;4.38;1.85;;;;;;;;;;5092697;28;20785;-63
2023/05/18 02:09:45;;;;;;;5.93;1.98;;;18.40;76.60;;;;;;5093922;28;20122;-60
2023/05/18 02:12:10;;;;;;;5.40;1.70;;;18.70;76.70;;;;;;5093993;28;20533;-61
2023/05/18 02:14:36;;;;;;;4.03;1.55;;;18.50;76.60;;;;;;5075839;28;20091;-63
2023/05/18 02:17:02;;;;;;;7.35;1.90;;;18.30;73.20;;;;;;5106048;28;20055;-61
2023/05/18 02:19:29;;;;;;;6.78;1.92;;;18.50;76.50;;;;;;5094576;28;20281;-60
2023/05/18 02:21:56;;;;;;;5.68;1.63;;;18.60;76.60;;;;;;5094352;28;20047;-60
2023/05/18 02:24:23;;;;;;;5.82;1.70;;;;;;;;;;5094057;28;20036;-64
2023/05/18 02:26:50;;;;;;;5.35;1.70;;;;;;;;;;5075000;28;20561;-64
2023/05/18 02:29:16;;;;;;;3.83;1.60;;;18.60;76.60;;;;;;5090101;28;20035;-62
2023/05/18 02:31:42;;;;;;;4.53;1.60;;;18.40;76.50;;;;;;5093899;28;20382;-61
2023/05/18 02:34:09;;;;;;;3.33;1.42;;;;;;;;;;5091305;28;20078;-62
2023/05/18 02:36:41;;;;;;;4.63;1.80;;;18.30;76.50;;;;;;5097137;28;20047;-61
2023/05/18 02:39:10;;;;;;;6.75;1.85;;;18.60;76.60;;;;;;5091181;28;20049;-61
2023/05/18 02:41:36;;;;;;;6.32;2.20;;;18.50;76.70;;;;;;5067838;28;20044;-61
2023/05/18 02:44:02;;;;;;;5.40;1.95;;;18.50;76.70;;;;;;5114870;28;20062;-62
2023/05/18 02:46:28;;;;;;;4.75;1.58;;;;;;;;;;5079735;28;20078;-62
2023/05/18 02:48:55;;;;;;;6.68;1.83;;;18.40;76.50;;;;;;5091169;28;20044;-62
2023/05/18 02:51:21;;;;;;;6.53;1.65;;;18.50;76.60;;;;;;5092943;28;20132;-62
2023/05/18 02:53:47;;;;;;;5.78;1.75;;;18.30;76.50;;;;;;5094577;28;20071;-62
2023/05/18 02:56:14;;;;;;;5.80;2.08;;;;;;;;;;5092527;28;20086;-65
2023/05/18 02:58:42;;;;;;;5.93;1.77;;;18.40;76.50;;;;;;5092167;28;20132;-65
2023/05/18 03:01:08;;;;;;;4.95;2.15;;;18.50;76.70;;;;;;5074322;28;20057;-61
2023/05/18 03:03:34;;;;;;;5.53;1.90;;;;;;;;;;5074332;28;20493;-62
2023/05/18 03:06:03;;;;;;;6.22;2.00;;;18.30;76.60;;;;;;5072449;28;20060;-61
2023/05/18 03:08:30;;;;;;;4.30;1.45;;;;;;;;;;5072463;28;20067;-62
2023/05/18 03:10:59;;;;;;;4.45;1.70;;;18.50;76.60;;;;;;5086592;28;20040;-61
2023/05/18 03:13:25;;;;;;;4.70;1.45;;;18.30;76.40;;;;;;5075475;28;20185;-62
2023/05/18 03:15:50;;;;;;;6.55;1.73;;;18.10;76.50;;;;;;5071834;28;20533;-60
2023/05/18 03:18:19;;;;;;;4.25;1.35;;;18.20;76.50;;;;;;5071034;28;20071;-61
2023/05/18 03:20:45;;;;;;;5.78;1.80;;;;;;;;;;5073641;28;20056;-62
2023/05/18 03:23:11;;;;;;;5.95;1.80;;;18.10;76.50;;;;;;5072572;28;20417;-61
2023/05/18 03:25:36;;;;;;;5.03;1.48;;;18.30;76.60;;;;;;5073522;28;20048;-60
2023/05/18 03:28:03;;;;;;;5.78;2.40;;;18.30;76.70;;;;;;5072325;28;20032;-61
2023/05/18 03:30:32;;;;;;;4.43;1.52;;;18.30;76.60;;;;;;5074735;28;20052;-61
2023/05/18 03:32:59;;;;;;;4.57;1.80;;;18.10;74.30;;;;;;5072521;28;20040;-61
2023/05/18 03:35:25;;;;;;;5.57;1.98;;;;;;;;;;5072510;28;20052;-61
2023/05/18 03:37:51;;;;;;;3.55;1.40;;;;;;;;;;5074901;28;20489;-61
2023/05/18 03:40:18;;;;;;;4.03;1.55;;;;;;;;;;5081246;28;20127;-61
2023/05/18 03:42:44;;;;;;;6.97;1.88;;;18.50;76.70;;;;;;5072328;28;20080;-61
2023/05/18 03:45:10;;;;;;;3.88;1.60;;;18.20;75.20;;;;;;5071120;28;20074;-61
2023/05/18 03:47:36;;;;;;;4.18;1.60;;;;;;;;;;5074981;28;20508;-61
2023/05/18 03:50:05;;;;;;;6.35;2.25;;;18.30;76.70;;;;;;5093663;28;20054;-61
2023/05/18 03:52:32;;;;;;;5.53;1.70;;;18.20;74.10;;;;;;5077288;28;20048;-60
2023/05/18 03:54:59;;;;;;;5.68;2.05;;;18.50;76.90;;;;;;5072221;28;20057;-60
2023/05/18 03:57:25;;;;;;;8.85;1.65;;;18.40;76.70;;;;;;5070835;28;20075;-61
2023/05/18 03:59:51;;;;;;;11.88;1.80;;;;;;;;;;5073559;28;20056;-62
2023/05/18 04:02:17;;;;;;;6.68;1.70;;;18.50;76.70;;;;;;5072602;28;20040;-61
2023/05/18 04:04:46;;;;;;;6.85;2.03;;;18.40;76.60;;;;;;5070349;28;20127;-61
2023/05/18 04:07:15;;;;;;;4.10;1.50;;;18.20;72.90;;;;;;5089238;28;20101;-65
2023/05/18 04:09:41;;;;;;;6.45;1.70;;;18.30;76.70;;;;;;5089351;28;20071;-60
2023/05/18 04:12:07;;;;;;;7.88;2.03;;;18.40;76.70;;;;;;5091534;28;20043;-61
2023/05/18 04:14:34;;;;;;;6.70;1.65;;;18.30;76.70;;;;;;5092798;28;20054;-60
2023/05/18 04:17:06;;;;;;;4.07;1.85;;;;;;;;;;5092032;28;20040;-62
2023/05/18 04:19:35;;;;;;;4.65;2.17;;;18.40;76.60;;;;;;5089900;28;20090;-60
2023/05/18 04:22:04;;;;;;;5.38;1.67;;;18.20;76.60;;;;;;5093095;28;20144;-61
2023/05/18 04:24:34;;;;;;;3.67;1.63;;;18.10;76.50;;;;;;5094269;28;20052;-61
2023/05/18 04:27:00;;;;;;;4.85;1.27;;;;;;;;;;5096452;28;20082;-64
2023/05/18 04:29:27;;;;;;;5.80;1.95;;;18.30;76.60;;;;;;5098481;28;20447;-61
2023/05/18 04:31:58;;;;;;;4.72;1.40;;;18.50;76.60;;;;;;5092734;28;20379;-61
2023/05/18 04:34:25;;;;;;;3.65;1.70;;;18.40;76.60;;;;;;5082700;28;20048;-61
2023/05/18 04:36:53;;;;;;;5.63;1.83;;;18.30;76.50;;;;;;5091843;28;20047;-60
2023/05/18 04:39:19;;;;;;;5.10;1.70;;;;;;;;;;5085320;28;20070;-66
2023/05/18 04:41:45;;;;;;;4.45;1.77;;;18.50;76.70;;;;;;5090919;28;20040;-61
2023/05/18 04:44:12;;;;;;;4.60;1.60;;;18.30;76.60;;;;;;5092844;28;20446;-61
2023/05/18 04:46:39;;;;;;;7.68;1.98;;;18.30;72.80;;;;;;5092858;28;20055;-61
2023/05/18 04:49:05;;;;;;;5.68;1.80;;;18.50;76.40;;;;;;5105866;28;20462;-61
2023/05/18 04:51:33;;;;;;;4.57;1.73;;;18.30;76.40;;;;;;5061435;28;20045;-60
2023/05/18 04:54:00;;;;;;;5.38;1.80;;;18.40;75.80;;;;;;5072742;28;20136;-61
2023/05/18 04:56:25;;;;;;;4.70;1.80;;;18.30;76.30;;;;;;5065752;28;20052;-61
2023/05/18 04:58:51;;;;;;;4.80;1.67;;;18.50;76.40;;;;;;5104531;28;20039;-61
2023/05/18 05:01:17;;;;;;;5.55;1.45;;;18.50;76.40;;;;;;5098914;28;20040;-62
2023/05/18 05:03:43;;;;;;;13.82;2.25;;;18.60;76.50;;;;;;5074761;28;20043;-61
2023/05/18 05:06:09;;;;;;;4.38;1.83;;;;;;;;;;5077096;28;20058;-62
2023/05/18 05:08:36;;;;;;;6.55;1.90;;;18.40;76.20;;;;;;5090629;28;20507;-61
2023/05/18 05:11:02;;;;;;;3.88;1.60;;;18.60;76.30;;;;;;5090809;28;20044;-61
2023/05/18 05:13:29;;;;;;;5.85;1.58;;;18.40;76.20;;;;;;5096106;28;20523;-60
2023/05/18 05:15:54;;;;;;;5.22;1.90;;;18.50;74.40;;;;;;5092901;28;20060;-62
2023/05/18 05:18:20;;;;;;;5.90;1.70;;;18.60;76.10;;;;;;5094678;28;20040;-61
2023/05/18 05:20:47;;;;;;;5.63;2.05;;;18.70;75.50;;;;;;5096449;28;20124;-61
2023/05/18 05:23:12;;;;;;;5.00;1.52;;;18.60;76.10;;;;;;5096420;28;20075;-60
2023/05/18 05:25:38;;;;;;;5.18;1.60;;;;;;;;;;5077750;28;20095;-60
2023/05/18 05:28:05;;;;;;;6.13;1.70;;;;;;;;;;5077406;28;20602;-60
2023/05/18 05:30:31;;;;;;;3.70;1.70;;;18.60;75.90;;;;;;5112233;28;20052;-61
2023/05/18 05:32:56;;;;;;;3.85;1.40;;;18.80;76.20;;;;;;5116173;28;20043;-60
2023/05/18 05:35:22;;;;;;;5.30;1.65;;;18.50;76.00;;;;;;5113083;28;20048;-61
2023/05/18 05:37:48;;;;;;;7.00;2.20;;;18.70;76.10;;;;;;5116214;28;20059;-61
2023/05/18 05:40:14;;;;;;;4.10;1.50;;;18.90;76.10;;;;;;5076110;28;20056;-61
2023/05/18 05:42:40;;;;;;;6.20;1.40;;;18.50;76.00;;;;;;5095702;28;20051;-61
2023/05/18 05:45:07;;;;;;;5.63;1.40;;;18.80;74.40;;;;;;5098070;28;20044;-62
2023/05/18 05:47:33;;;;;;;4.63;1.63;;;18.70;75.90;;;;;;5093441;28;20449;-64
2023/05/18 05:49:59;;;;;;;6.15;1.55;;;;;;;;;;5115523;28;20122;-62
2023/05/18 05:52:27;;;;;;;4.18;1.65;;;18.80;76.00;;;;;;5115743;28;20040;-60
2023/05/18 05:54:54;;;;;;;3.90;1.70;;;18.70;75.90;;;;;;5102609;28;20115;-60
2023/05/18 05:57:20;;;;;;;8.50;1.70;;;19.00;76.10;;;;;;5097631;28;20052;-61
2023/05/18 05:59:45;;;;;;;6.20;1.88;;;19.00;76.00;;;;;;5116095;28;20046;-60
2023/05/18 06:02:11;;;;;;;4.20;1.48;;;;;;;;;;5107412;28;20048;-61
2023/05/18 06:04:38;;;;;;;3.90;1.45;;;;;;;;;;5096814;28;20507;-61
2023/05/18 06:07:05;;;;;;;2.95;1.35;;;18.90;75.70;;;;;;5065240;28;20128;-61
2023/05/18 06:09:30;;;;;;;5.20;1.60;;;19.20;75.70;;;;;;5054919;28;20103;-60
2023/05/18 06:11:56;;;;;;;8.68;2.35;;;18.70;75.30;;;;;;5054961;28;20053;-61
2023/05/18 06:14:22;;;;;;;8.23;1.60;;;18.90;75.30;;;;;;5079841;28;20139;-61
2023/05/18 06:16:48;;;;;;;3.53;1.45;;;19.10;75.50;;;;;;5090736;28;20040;-62
2023/05/18 06:19:14;;;;;;;6.10;1.70;;;19.20;75.50;;;;;;5072206;28;20124;-60
2023/05/18 06:21:40;;;;;;;5.63;1.63;;;19.20;75.40;;;;;;5054679;28;20115;-61
2023/05/18 06:24:06;;;;;;;5.32;1.65;;;19.10;75.40;;;;;;5036855;28;20187;-61
2023/05/18 06:26:31;;;;;;;5.30;1.65;;;19.50;75.50;;;;;;5081635;28;20044;-61
2023/05/18 06:28:57;;;;;;;4.00;1.63;;;;;;;;;;5095168;28;20036;-61
2023/05/18 06:31:23;;;;;;;7.38;1.90;;;19.10;75.30;;;;;;5094888;28;20182;-61
2023/05/18 06:33:49;;;;;;;4.85;1.80;;;19.00;75.20;;;;;;5088414;28;20124;-62
2023/05/18 06:36:15;;;;;;;4.88;1.63;;;19.30;75.30;;;;;;5080269;28;20044;-60
2023/05/18 06:38:41;;;;;;;5.65;1.58;;;19.40;71.70;;;;;;5079191;28;20048;-66
2023/05/18 06:41:07;;;;;;;3.85;1.70;;;19.50;75.30;;;;;;5074724;28;20045;-62
2023/05/18 06:43:33;;;;;;;3.60;1.50;;;;;;;;;;5073758;28;20591;-62
2023/05/18 06:45:59;;;;;;;5.63;1.60;;;19.80;73.80;;;;;;5080333;28;20040;-66
2023/05/18 06:48:26;;;;;;;6.30;1.70;;;19.40;74.90;;;;;;5069680;28;20045;-65
2023/05/18 06:50:52;;;;;;;5.13;1.73;;;;;;;;;;5071380;28;20047;-65
2023/05/18 06:53:18;;;;;;;5.43;1.65;;;19.50;71.10;;;;;;5061477;28;20049;-61
2023/05/18 06:55:44;;;;;;;5.78;1.75;;;19.70;74.90;;;;;;5074570;28;20037;-64
2023/05/18 06:58:10;;;;;;;4.68;1.75;;;19.60;74.60;;;;;;5073473;28;20048;-61
2023/05/18 07:00:37;;;;;;;5.55;2.03;;;19.90;74.70;;;;;;5093548;28;20109;-66
2023/05/18 07:03:02;;;;;;;6.07;1.83;;;19.90;74.50;;;;;;5091847;28;20044;-65
2023/05/18 07:05:29;;;;;;;6.45;1.83;;;19.90;74.30;;;;;;5093817;28;20043;-66
2023/05/18 07:07:55;;;;;;;8.45;2.03;;;;;;;;;;5114807;28;20434;-65
2023/05/18 07:10:21;;;;;;;4.70;1.60;;;20.00;73.90;;;;;;5104749;28;20046;-65
2023/05/18 07:12:48;;;;;;;5.15;1.95;;;20.20;73.90;;;;;;5093320;28;20032;-65
2023/05/18 07:15:14;;;;;;;3.83;1.73;;;20.10;73.70;;;;;;5094063;28;20052;-66
2023/05/18 07:17:39;;;;;;;4.65;1.75;;;20.20;71.70;;;;;;5093905;28;20043;-66
2023/05/18 07:20:06;;;;;;;7.03;1.92;;;20.20;70.40;;;;;;5068210;28;20079;-65
2023/05/18 07:22:33;;;;;;;3.47;1.50;;;20.50;73.70;;;;;;5107841;28;20043;-65
2023/05/18 07:24:59;;;;;;;5.38;1.95;;;20.40;73.50;;;;;;5103083;28;20051;-65
2023/05/18 07:27:28;;;;;;;5.90;1.55;;;20.60;72.30;;;;;;5091560;28;20493;-65
2023/05/18 07:29:54;;;;;;;4.18;1.70;;;;;;;;;;5088358;28;20040;-65
2023/05/18 07:32:20;;;;;;;5.43;1.98;;;20.70;73.20;;;;;;5079195;28;20052;-65
2023/05/18 07:34:46;;;;;;;3.70;1.50;;;20.60;70.60;;;;;;5089713;28;20393;-64
2023/05/18 07:37:12;;;;;;;4.10;1.70;;;20.80;73.10;;;;;;5092103;28;20571;-63
2023/05/18 07:39:38;;;;;;;5.22;1.60;;;21.00;73.00;;;;;;5088850;28;20090;-65
2023/05/18 07:42:04;;;;;;;2.85;1.50;;;21.20;72.80;;;;;;5079779;28;20120;-66
2023/05/18 07:44:30;;;;;;;5.93;1.70;;;21.40;72.60;;;;;;5078554;28;20048;-66
2023/05/18 07:46:55;;;;;;;5.03;1.70;;;21.50;69.40;;;;;;5096010;28;20044;-65
2023/05/18 07:49:24;;;;;;;7.50;1.92;;;21.50;72.10;;;;;;5113624;28;20047;-66
2023/05/18 07:51:50;;;;;;;6.13;1.92;;;21.70;71.10;;;;;;5089699;28;20729;-61
2023/05/18 07:54:16;;;;;;;4.45;1.60;;;21.70;69.30;;;;;;5093224;28;20055;-61
2023/05/18 07:56:43;;;;;;;4.13;1.77;;;21.80;72.00;;;;;;5091806;28;20040;-61
2023/05/18 07:59:09;;;;;;;4.32;1.83;;;;;;;;;;5090967;28;20126;-63
2023/05/18 08:01:36;;;;;;;3.53;1.77;;;22.10;71.90;;;;;;5092318;28;20039;-61
2023/05/18 08:04:02;;;;;;;4.18;1.60;;;22.00;71.60;;;;;;5097139;28;20582;-61
2023/05/18 08:06:29;;;;;;;4.55;1.42;;;22.10;70.80;;;;;;5091105;28;20052;-61
2023/05/18 08:08:55;;;;;;;5.82;2.13;;;22.00;71.50;;;;;;5092345;28;20565;-60
2023/05/18 08:11:22;;;;;;;6.43;2.22;;;22.20;71.50;;;;;;5090759;28;20042;-65
2023/05/18 08:13:48;;;;;;;4.75;1.88;;;22.20;71.40;;;;;;5087550;28;20056;-62
2023/05/18 08:16:13;;;;;;;4.97;1.65;;;22.20;71.50;;;;;;5091396;28;20442;-61
2023/05/18 08:18:39;;;;;;;6.70;1.67;;;22.30;71.50;;;;;;5091612;28;20056;-64
2023/05/18 08:21:07;;;;;;;5.22;1.88;;;22.30;71.50;;;;;;5092134;28;20581;-65
2023/05/18 08:23:34;;;;;;;7.60;1.90;;;22.20;71.50;;;;;;5092156;28;20040;-64
2023/05/18 08:26:02;;;;;;;5.60;1.50;;;;;;;;;;5090525;28;20050;-65
2023/05/18 08:28:28;;;;;;;5.35;1.75;;;;;;;;;;5090560;28;20048;-65
2023/05/18 08:30:54;;;;;;;5.45;1.45;;;22.20;71.50;;;;;;5091502;28;20409;-65
2023/05/18 08:33:20;;;;;;;4.55;1.58;;;22.40;71.60;;;;;;5095713;28;20040;-65
2023/05/18 08:35:46;;;;;;;3.30;1.50;;;;;;;;;;5072327;28;20047;-66
2023/05/18 08:38:12;;;;;;;5.53;1.70;;;;;;;;;;5069577;28;20094;-65
2023/05/18 08:41:04;;;;;;;5.00;1.70;;;22.40;71.60;;;;;;5086948;28;20524;-67
2023/05/18 08:43:32;;;;;;;3.92;2.00;;;22.40;71.60;;;;;;5088830;28;20052;-67
2023/05/18 08:46:09;;;;;;;5.78;1.77;;;22.10;66.80;;;;;;5069225;28;20127;-66
2023/05/18 08:48:35;;;;;;;4.45;1.83;;;22.00;71.50;;;;;;5077624;28;20366;-66
2023/05/18 08:51:03;;;;;;;3.90;1.50;;;22.00;71.40;;;;;;5070883;28;20109;-66
2023/05/18 08:53:30;;;;;;;6.00;1.90;;;;;;;;;;5094123;28;20048;-64
2023/05/18 08:55:56;;;;;;;4.22;1.55;;;22.00;71.70;;;;;;5096149;28;20058;-61
2023/05/18 08:58:26;;;;;;;4.43;1.52;;;22.10;71.70;;;;;;5060645;28;20044;-65
2023/05/18 09:00:53;;;;;;;5.68;1.80;;;22.10;69.70;;;;;;5078903;28;20075;-66
2023/05/18 09:03:19;;;;;;;5.75;1.90;;;22.00;68.40;;;;;;5075621;28;20439;-66
2023/05/18 09:05:45;;;;;;;3.40;1.50;;;;;;;;;;5077529;28;20090;-63
2023/05/18 09:08:11;;;;;;;5.28;1.80;;;22.00;71.90;;;;;;5095465;28;20040;-63
2023/05/18 09:10:36;;;;;;;3.80;1.42;;;22.00;71.90;;;;;;5076821;28;20043;-65
2023/05/18 09:13:04;;;;;;;4.00;1.50;;;21.90;70.50;;;;;;5056153;28;20393;-66
2023/05/18 09:15:30;;;;;;;4.38;1.80;;;22.10;71.90;;;;;;5061112;28;20443;-66
2023/05/18 09:17:55;;;;;;;5.43;1.50;;;21.80;71.80;;;;;;5093767;28;20032;-68
2023/05/18 09:20:21;;;;;;;4.53;1.83;;;21.80;71.90;;;;;;5095017;28;20504;-69
2023/05/18 09:22:50;;;;;;;7.03;1.90;;;21.90;72.20;;;;;;5060403;28;20066;-69
2023/05/18 09:25:15;;;;;;;4.63;1.80;;;21.90;71.30;;;;;;5069806;28;20044;-65
2023/05/18 09:27:41;;;;;;;6.25;2.10;;;22.10;72.30;;;;;;5071087;28;20036;-66
2023/05/18 09:30:10;;;;;;;4.75;2.10;;;22.20;72.30;;;;;;5077239;28;20560;-65
2023/05/18 09:32:36;;;;;;;6.25;2.28;;;22.10;72.30;;;;;;5096202;28;20051;-65
2023/05/18 09:35:04;;;;;;;10.40;2.10;;;22.00;70.70;;;;;;5092536;28;20143;-65
2023/05/18 09:37:30;;;;;;;16.95;2.35;;;21.90;72.20;;;;;;5095365;28;20067;-66
2023/05/18 09:40:00;;;;;;;10.07;2.28;;;21.90;72.20;;;;;;5093818;28;20040;-65
2023/05/18 09:42:48;;;;;;;6.68;1.83;;;21.80;69.00;;;;;;5095408;28;20403;-66
2023/05/18 09:45:25;;;;;;;4.85;2.03;;;21.80;72.10;;;;;;5094789;28;20447;-65
2023/05/18 09:47:51;;;;;;;8.18;1.95;;;21.90;68.80;;;;;;5094731;28;20521;-65
2023/05/18 09:50:21;;;;;;;5.45;2.00;;;21.70;68.90;;;;;;5075389;28;20040;-64
2023/05/18 09:52:48;;;;;;;7.30;2.53;;;21.90;72.00;;;;;;5076624;28;20065;-65
2023/05/18 09:55:17;;;;;;;7.38;2.22;;;21.80;71.90;;;;;;5095009;28;20044;-66
2023/05/18 09:57:47;;;;;;;6.70;2.10;;;21.90;71.90;;;;;;5076950;28;20040;-65
2023/05/18 10:00:14;;;;;;;9.20;1.92;;;22.00;68.80;;;;;;5093708;28;20055;-65
2023/05/18 10:02:51;;;;;;;7.03;2.00;;;21.90;71.80;;;;;;5076530;28;20040;-61
2023/05/18 10:05:27;;;;;;;7.82;2.03;;;21.80;70.90;;;;;;5076434;28;20048;-61
2023/05/18 10:07:56;;;;;;;6.57;2.00;;;21.90;71.70;;;;;;5095272;28;20052;-60
2023/05/18 10:10:30;;;;;;;5.45;2.03;;;21.70;71.60;;;;;;5077793;28;20044;-60
2023/05/18 10:12:58;;;;;;;5.10;2.00;;;21.70;71.60;;;;;;5094732;28;20048;-61
2023/05/18 10:15:24;;;;;;;6.38;1.90;;;21.80;71.70;;;;;;5093597;28;20131;-60
2023/05/18 10:17:54;;;;;;;6.13;2.03;;;21.80;71.60;;;;;;5096312;28;20039;-60
2023/05/18 10:20:23;;;;;;;6.53;2.20;;;21.80;68.50;;;;;;5094876;28;20547;-64
2023/05/18 10:22:49;;;;;;;8.25;2.08;;;21.70;71.30;;;;;;5075891;28;20464;-65
2023/05/18 10:25:25;;;;;;;5.75;1.95;;;21.80;70.20;;;;;;5074993;28;20111;-65
2023/05/18 10:27:57;;;;;;;8.15;2.17;;;21.70;71.40;;;;;;5089966;28;20378;-64
2023/05/18 10:30:23;;;;;;;12.57;2.70;;;21.80;71.30;;;;;;5061041;28;20093;-65
2023/05/18 10:32:48;;;;;;;10.00;2.20;;;21.70;71.40;;;;;;5059246;28;20293;-66
2023/05/18 10:35:14;;;;;;;7.28;1.98;;;21.90;71.40;;;;;;5076012;28;20087;-64
2023/05/18 10:37:42;;;;;;;6.55;2.00;;;21.60;69.60;;;;;;5093698;28;20452;-66
2023/05/18 10:40:08;;;;;;;8.50;2.50;;;21.90;71.40;;;;;;5077277;28;20409;-66
2023/05/18 10:42:35;;;;;;;7.75;2.25;;;21.60;71.10;;;;;;5078984;28;20488;-69
2023/05/18 10:45:00;;;;;;;10.75;2.45;;;21.60;71.00;;;;;;5072720;28;20040;-68
2023/05/18 10:47:27;;;;;;;7.28;2.28;;;22.00;71.20;;;;;;5075643;28;20393;-67
2023/05/18 10:49:53;;;;;;;4.80;1.80;;;21.70;67.60;;;;;;5094470;28;20048;-63
2023/05/18 10:52:19;;;;;;;8.80;2.28;;;21.80;71.20;;;;;;5093847;28;20127;-60
2023/05/18 10:54:46;;;;;;;6.80;2.08;;;21.90;71.20;;;;;;5091505;28;20050;-63
2023/05/18 10:57:14;;;;;;;5.05;1.63;;;22.00;71.40;;;;;;5087223;28;20426;-66
2023/05/18 10:59:41;;;;;;;5.53;2.00;;;;;;;;;;5072299;28;20036;-65
2023/05/18 11:02:08;;;;;;;8.73;2.63;;;21.80;71.80;;;;;;5093093;28;20044;-69
2023/05/18 11:04:33;;;;;;;6.20;2.00;;;21.80;71.80;;;;;;5072999;28;20079;-66
2023/05/18 11:07:00;;;;;;;7.10;2.53;;;21.80;72.10;;;;;;5092699;28;20507;-67
2023/05/18 11:09:26;;;;;;;6.78;2.20;;;22.00;72.30;;;;;;5091895;28;20140;-61
2023/05/18 11:11:54;;;;;;;5.57;2.30;;;21.80;72.40;;;;;;5059572;28;20102;-62
2023/05/18 11:14:25;;;;;;;5.40;2.22;;;21.80;72.60;;;;;;5094374;28;20404;-63
2023/05/18 11:16:51;;;;;;;7.90;1.92;;;21.80;72.80;;;;;;5090713;28;20044;-62
2023/05/18 11:19:17;;;;;;;5.15;2.20;;;21.90;72.80;;;;;;5091487;28;20047;-62
2023/05/18 11:21:47;;;;;;;9.18;2.15;;;22.10;73.00;;;;;;5094155;28;20170;-68
2023/05/18 11:24:32;;;;;;;8.25;2.58;;;21.80;72.80;;;;;;5093303;28;20044;-73
2023/05/18 11:27:02;;;;;;;5.30;2.40;;;22.00;69.70;;;;;;5067844;28;20129;-71
2023/05/18 11:29:41;;;;;;;6.47;1.80;;;21.90;72.90;;;;;;5071872;28;20042;-64
2023/05/18 11:32:22;;;;;;;5.03;1.70;;;21.80;72.90;;;;;;5089538;28;20422;-62
2023/05/18 11:34:52;;;;;;;6.65;2.60;;;21.70;73.00;;;;;;5091999;28;20048;-62
2023/05/18 11:37:41;;;;;;;11.30;2.70;;;21.70;73.00;;;;;;5092693;28;20028;-64
2023/05/18 11:40:10;;;;;;;10.57;2.75;;;21.60;72.80;;;;;;5074073;28;20083;-65
2023/05/18 11:42:36;;;;;;;7.53;2.30;;;21.80;72.80;;;;;;5092643;28;20443;-61
2023/05/18 11:45:09;;;;;;;5.82;2.50;;;21.90;72.80;;;;;;5075153;28;20056;-62
2023/05/18 11:47:35;;;;;;;;;;;21.90;70.30;;;;;;5092885;28;20048;-67
2023/05/18 11:50:01;;;;;;;7.93;2.40;;;21.90;72.70;;;;;;5092642;28;19973;-62
2023/05/18 11:52:26;;;;;;;7.03;2.47;;;21.70;72.60;;;;;;5090885;28;20082;-68
2023/05/18 11:54:59;;;;;;;11.98;2.72;;;21.70;72.70;;;;;;5093385;28;20048;-66
2023/05/18 11:57:33;;;;;;;8.68;2.22;;;21.80;72.70;;;;;;5092124;28;20036;-62
2023/05/18 12:00:06;;;;;;;9.30;3.05;;;21.90;69.80;;;;;;5081769;28;20424;-62
2023/05/18 12:02:32;;;;;;;;;;;21.80;70.20;;;;;;5090863;28;20047;-62
2023/05/18 12:04:59;;;;;;;8.18;2.58;;;21.70;73.20;;;;;;5093411;28;19923;-62
2023/05/18 12:07:27;;;;;;;8.27;2.40;;;21.70;73.40;;;;;;5092944;28;20402;-62
2023/05/18 12:10:11;;;;;;;8.90;2.38;;;21.40;69.30;;;;;;5092650;28;20166;-63
2023/05/18 12:12:38;;;;;;;10.63;2.70;;;21.60;73.60;;;;;;5066105;28;20120;-61
2023/05/18 12:15:05;;;;;;;8.73;2.55;;;21.70;73.60;;;;;;5090391;28;20075;-62
2023/05/18 12:17:44;;;;;;;10.63;2.70;;;21.70;68.90;;;;;;5091207;28;20566;-63
2023/05/18 12:20:11;;;;;;;8.30;2.22;;;21.80;73.80;;;;;;5083281;28;20045;-61
2023/05/18 12:22:45;;;;;;;7.72;2.20;;;21.50;70.60;;;;;;5081559;28;20111;-61
2023/05/18 12:25:11;;;;;;;8.88;2.50;;;21.60;71.80;;;;;;5093038;28;20040;-61
2023/05/18 12:27:41;;;;;;;7.85;2.53;;;21.60;73.90;;;;;;5074767;28;20611;-63
2023/05/18 12:30:11;;;;;;;6.93;2.65;;;21.40;70.70;;;;;;5085999;28;20047;-64
2023/05/18 12:32:37;;;;;;;7.70;2.72;;;21.40;70.10;;;;;;5088694;28;20131;-64
2023/05/18 12:35:04;;;;;;;5.65;2.10;;;21.70;74.10;;;;;;5091685;28;20051;-62
2023/05/18 12:37:31;;;;;;;9.45;2.88;;;;;;;;;;5083591;28;20187;-61
2023/05/18 12:39:56;;;;;;;7.43;2.80;;;21.50;74.10;;;;;;5073727;28;20558;-65
2023/05/18 12:42:22;;;;;;;9.10;2.40;;;;;;;;;;5092854;28;20044;-62
2023/05/18 12:44:49;;;;;;;9.95;2.75;;;21.60;74.10;;;;;;5091525;28;20497;-61
2023/05/18 12:47:15;;;;;;;9.48;2.83;;;21.40;74.00;;;;;;5092483;28;20048;-62
2023/05/18 12:49:42;;;;;;;6.60;2.38;;;21.40;74.00;;;;;;5092060;28;20036;-63
2023/05/18 12:52:12;;;;;;;9.85;2.88;;;21.70;74.10;;;;;;5058739;28;20114;-61
2023/05/18 12:54:55;;;;;;;9.85;3.08;;;21.60;73.60;;;;;;5054460;28;20060;-61
2023/05/18 12:57:24;;;;;;;7.18;2.63;;;21.40;73.70;;;;;;5089658;28;20487;-61
2023/05/18 12:59:51;;;;;;;7.55;2.60;;;21.50;73.80;;;;;;5090111;28;20040;-71
2023/05/18 13:02:27;;;;;;;9.25;2.83;;;21.50;73.80;;;;;;5089082;28;20048;-62